createdAt,value
2016-12-09T00:00:10.562Z,922.56
2016-12-09T00:00:27.273Z,922.57
2016-12-09T00:00:43.980Z,922.55
2016-12-09T00:01:00.685Z,922.55
2016-12-09T00:01:17.922Z,922.53
2016-12-09T00:01:34.638Z,922.56
2016-12-09T00:01:51.355Z,922.56
2016-12-09T00:02:08.073Z,922.5
2016-12-09T00:02:24.806Z,922.56
2016-12-09T00:02:41.496Z,922.52
2016-12-09T00:02:58.237Z,922.57
2016-12-09T00:03:14.958Z,922.54
2016-12-09T00:03:31.662Z,922.55
2016-12-09T00:03:48.358Z,922.54
2016-12-09T00:04:05.069Z,922.57
2016-12-09T00:04:21.779Z,922.54
2016-12-09T00:04:38.521Z,922.58
2016-12-09T00:04:55.251Z,922.57
2016-12-09T00:05:11.980Z,922.59
2016-12-09T00:05:28.698Z,922.59
2016-12-09T00:05:45.420Z,922.62
2016-12-09T00:06:02.164Z,922.65
2016-12-09T00:06:18.889Z,922.61
2016-12-09T00:06:35.591Z,922.66
2016-12-09T00:06:52.294Z,922.69
2016-12-09T00:07:09.028Z,922.67
2016-12-09T00:07:25.755Z,922.71
2016-12-09T00:07:42.503Z,922.73
2016-12-09T00:07:59.226Z,922.74
2016-12-09T00:08:15.953Z,922.76
2016-12-09T00:08:32.656Z,922.81
2016-12-09T00:08:49.349Z,922.77
2016-12-09T00:09:06.094Z,922.8
2016-12-09T00:09:22.815Z,922.81
2016-12-09T00:09:39.552Z,922.83
2016-12-09T00:09:56.280Z,922.83
2016-12-09T00:10:13.002Z,922.85
2016-12-09T00:10:29.728Z,922.86
2016-12-09T00:10:46.441Z,922.88
2016-12-09T00:11:03.132Z,922.88
2016-12-09T00:11:19.875Z,922.9
2016-12-09T00:11:36.603Z,922.89
2016-12-09T00:11:53.855Z,922.89
2016-12-09T00:12:10.575Z,922.88
2016-12-09T00:12:27.308Z,922.86
2016-12-09T00:12:44.253Z,922.91
2016-12-09T00:13:00.958Z,922.88
2016-12-09T00:13:17.679Z,922.89
2016-12-09T00:13:34.400Z,922.88
2016-12-09T00:13:51.139Z,922.85
2016-12-09T00:14:07.850Z,922.87
2016-12-09T00:14:24.595Z,922.83
2016-12-09T00:14:41.283Z,922.83
2016-12-09T00:14:58.027Z,922.87
2016-12-09T00:15:14.716Z,922.84
2016-12-09T00:15:31.392Z,922.84
2016-12-09T00:15:48.113Z,922.82
2016-12-09T00:16:04.825Z,922.8
2016-12-09T00:16:21.571Z,922.79
2016-12-09T00:16:38.289Z,922.78
2016-12-09T00:16:55.008Z,922.75
2016-12-09T00:17:11.739Z,922.8
2016-12-09T00:17:28.464Z,922.76
2016-12-09T00:17:45.207Z,922.74
2016-12-09T00:18:01.922Z,922.77
2016-12-09T00:18:18.662Z,922.76
2016-12-09T00:18:35.379Z,922.75
2016-12-09T00:18:52.794Z,922.78
2016-12-09T00:19:09.517Z,922.78
2016-12-09T00:19:26.224Z,922.78
2016-12-09T00:19:42.924Z,922.78
2016-12-09T00:19:59.635Z,922.77
2016-12-09T00:20:16.889Z,922.76
2016-12-09T00:20:33.586Z,922.78
2016-12-09T00:20:50.279Z,922.79
2016-12-09T00:21:06.994Z,922.8
2016-12-09T00:21:23.694Z,922.84
2016-12-09T00:21:40.414Z,922.84
2016-12-09T00:21:57.129Z,922.8
2016-12-09T00:22:13.848Z,922.84
2016-12-09T00:22:30.566Z,922.83
2016-12-09T00:22:47.286Z,922.85
2016-12-09T00:23:03.976Z,922.85
2016-12-09T00:23:20.695Z,922.85
2016-12-09T00:23:37.464Z,922.85
2016-12-09T00:23:54.205Z,922.85
2016-12-09T00:24:10.938Z,922.85
2016-12-09T00:24:27.655Z,922.86
2016-12-09T00:24:44.945Z,922.82
2016-12-09T00:25:01.675Z,922.85
2016-12-09T00:25:18.425Z,922.87
2016-12-09T00:25:35.138Z,922.87
2016-12-09T00:25:51.855Z,922.89
2016-12-09T00:26:08.537Z,922.88
2016-12-09T00:26:25.270Z,922.87
2016-12-09T00:26:41.996Z,922.9
2016-12-09T00:26:58.735Z,922.89
2016-12-09T00:27:15.433Z,922.91
2016-12-09T00:27:32.160Z,922.92
2016-12-09T00:27:48.891Z,922.91
2016-12-09T00:28:05.591Z,922.91
2016-12-09T00:28:22.317Z,922.89
2016-12-09T00:28:39.022Z,922.94
2016-12-09T00:28:55.776Z,922.91
2016-12-09T00:29:12.485Z,922.94
2016-12-09T00:29:29.210Z,922.96
2016-12-09T00:29:45.935Z,922.97
2016-12-09T00:30:02.696Z,922.99
2016-12-09T00:30:19.399Z,923.01
2016-12-09T00:30:36.100Z,923.02
2016-12-09T00:30:52.822Z,923
2016-12-09T00:31:09.582Z,923.03
2016-12-09T00:31:26.344Z,923.01
2016-12-09T00:31:43.070Z,923.05
2016-12-09T00:31:59.810Z,923.06
2016-12-09T00:32:16.540Z,923.11
2016-12-09T00:32:33.234Z,923.08
2016-12-09T00:32:49.918Z,923.09
2016-12-09T00:33:06.641Z,923.11
2016-12-09T00:33:23.385Z,923.12
2016-12-09T00:33:40.091Z,923.12
2016-12-09T00:33:56.806Z,923.14
2016-12-09T00:34:13.549Z,923.13
2016-12-09T00:34:30.251Z,923.14
2016-12-09T00:34:46.990Z,923.14
2016-12-09T00:35:03.705Z,923.18
2016-12-09T00:35:20.429Z,923.19
2016-12-09T00:35:37.152Z,923.2
2016-12-09T00:35:53.887Z,923.18
2016-12-09T00:36:10.616Z,923.21
2016-12-09T00:36:27.339Z,923.2
2016-12-09T00:36:44.055Z,923.18
2016-12-09T00:37:00.777Z,923.16
2016-12-09T00:37:17.512Z,923.2
2016-12-09T00:37:34.224Z,923.2
2016-12-09T00:37:50.946Z,923.2
2016-12-09T00:38:07.688Z,923.21
2016-12-09T00:38:24.420Z,923.19
2016-12-09T00:38:41.111Z,923.21
2016-12-09T00:38:57.843Z,923.23
2016-12-09T00:39:14.553Z,923.23
2016-12-09T00:39:31.303Z,923.21
2016-12-09T00:39:48.045Z,923.22
2016-12-09T00:40:04.768Z,923.25
2016-12-09T00:40:22.037Z,923.25
2016-12-09T00:40:38.782Z,923.24
2016-12-09T00:40:55.491Z,923.24
2016-12-09T00:41:12.205Z,923.26
2016-12-09T00:41:28.915Z,923.25
2016-12-09T00:41:45.637Z,923.24
2016-12-09T00:42:02.380Z,923.26
2016-12-09T00:42:19.076Z,923.25
2016-12-09T00:42:35.796Z,923.24
2016-12-09T00:42:52.503Z,923.24
2016-12-09T00:43:09.225Z,923.24
2016-12-09T00:43:25.967Z,923.21
2016-12-09T00:43:42.691Z,923.24
2016-12-09T00:43:59.922Z,923.24
2016-12-09T00:44:16.672Z,923.24
2016-12-09T00:44:33.373Z,923.22
2016-12-09T00:44:50.118Z,923.21
2016-12-09T00:45:06.811Z,923.22
2016-12-09T00:45:23.536Z,923.23
2016-12-09T00:45:40.267Z,923.2
2016-12-09T00:45:56.999Z,923.19
2016-12-09T00:46:13.740Z,923.16
2016-12-09T00:46:30.453Z,923.19
2016-12-09T00:46:47.180Z,923.23
2016-12-09T00:47:03.892Z,923.21
2016-12-09T00:47:20.612Z,923.2
2016-12-09T00:47:37.328Z,923.23
2016-12-09T00:47:54.050Z,923.22
2016-12-09T00:48:10.734Z,923.21
2016-12-09T00:48:27.453Z,923.25
2016-12-09T00:48:44.214Z,923.23
2016-12-09T00:49:00.942Z,923.26
2016-12-09T00:49:17.673Z,923.22
2016-12-09T00:49:34.400Z,923.22
2016-12-09T00:49:51.099Z,923.21
2016-12-09T00:50:07.791Z,923.25
2016-12-09T00:50:24.492Z,923.22
2016-12-09T00:50:41.244Z,923.26
2016-12-09T00:50:57.931Z,923.25
2016-12-09T00:51:14.650Z,923.28
2016-12-09T00:51:31.382Z,923.25
2016-12-09T00:51:48.105Z,923.26
2016-12-09T00:52:04.838Z,923.27
2016-12-09T00:52:22.076Z,923.22
2016-12-09T00:52:38.798Z,923.26
2016-12-09T00:52:56.037Z,923.27
2016-12-09T00:53:12.767Z,923.25
2016-12-09T00:53:29.490Z,923.26
2016-12-09T00:53:46.189Z,923.25
2016-12-09T00:54:02.912Z,923.25
2016-12-09T00:54:19.623Z,923.27
2016-12-09T00:54:36.344Z,923.27
2016-12-09T00:54:53.066Z,923.29
2016-12-09T00:55:09.775Z,923.23
2016-12-09T00:55:26.504Z,923.23
2016-12-09T00:55:43.246Z,923.21
2016-12-09T00:55:59.965Z,923.26
2016-12-09T00:56:16.690Z,923.21
2016-12-09T00:56:33.403Z,923.2
2016-12-09T00:56:50.092Z,923.23
2016-12-09T00:57:06.808Z,923.2
2016-12-09T00:57:23.543Z,923.24
2016-12-09T00:57:40.261Z,923.25
2016-12-09T00:57:56.989Z,923.25
2016-12-09T00:58:13.710Z,923.2
2016-12-09T00:58:30.411Z,923.18
2016-12-09T00:58:47.118Z,923.2
2016-12-09T00:59:04.312Z,923.22
2016-12-09T00:59:21.051Z,923.2
2016-12-09T00:59:37.772Z,923.23
2016-12-09T00:59:55.022Z,923.21
2016-12-09T01:00:11.730Z,923.23
2016-12-09T01:00:28.457Z,923.23
2016-12-09T01:00:45.192Z,923.16
2016-12-09T01:01:01.924Z,923.21
2016-12-09T01:01:18.655Z,923.16
2016-12-09T01:01:35.355Z,923.17
2016-12-09T01:01:52.078Z,923.16
2016-12-09T01:02:08.802Z,923.16
2016-12-09T01:02:25.529Z,923.14
2016-12-09T01:02:42.247Z,923.13
2016-12-09T01:02:59.024Z,923.16
2016-12-09T01:03:15.748Z,923.14
2016-12-09T01:03:32.462Z,923.15
2016-12-09T01:03:49.192Z,923.16
2016-12-09T01:04:05.902Z,923.15
2016-12-09T01:04:22.623Z,923.15
2016-12-09T01:04:39.362Z,923.17
2016-12-09T01:04:56.091Z,923.2
2016-12-09T01:05:12.805Z,923.14
2016-12-09T01:05:29.546Z,923.15
2016-12-09T01:05:46.257Z,923.15
2016-12-09T01:06:03.014Z,923.16
2016-12-09T01:06:19.747Z,923.17
2016-12-09T01:06:37.008Z,923.18
2016-12-09T01:06:53.737Z,923.15
2016-12-09T01:07:10.465Z,923.17
2016-12-09T01:07:27.161Z,923.19
2016-12-09T01:07:43.860Z,923.16
2016-12-09T01:08:00.593Z,923.2
2016-12-09T01:08:17.303Z,923.15
2016-12-09T01:08:34.016Z,923.13
2016-12-09T01:08:50.720Z,923.17
2016-12-09T01:09:07.436Z,923.16
2016-12-09T01:09:24.134Z,923.17
2016-12-09T01:09:40.832Z,923.16
2016-12-09T01:09:57.551Z,923.18
2016-12-09T01:10:14.290Z,923.16
2016-12-09T01:10:31.034Z,923.13
2016-12-09T01:10:47.771Z,923.15
2016-12-09T01:11:04.493Z,923.13
2016-12-09T01:11:21.224Z,923.11
2016-12-09T01:11:37.954Z,923.16
2016-12-09T01:11:54.680Z,923.13
2016-12-09T01:12:11.429Z,923.15
2016-12-09T01:12:28.192Z,923.13
2016-12-09T01:12:44.897Z,923.14
2016-12-09T01:13:01.621Z,923.09
2016-12-09T01:13:18.310Z,923.12
2016-12-09T01:13:35.050Z,923.15
2016-12-09T01:13:51.779Z,923.12
2016-12-09T01:14:08.510Z,923.16
2016-12-09T01:14:25.214Z,923.11
2016-12-09T01:14:41.922Z,923.13
2016-12-09T01:14:58.654Z,923.16
2016-12-09T01:15:15.349Z,923.14
2016-12-09T01:15:32.059Z,923.12
2016-12-09T01:15:48.796Z,923.14
2016-12-09T01:16:05.509Z,923.15
2016-12-09T01:16:22.208Z,923.13
2016-12-09T01:16:38.925Z,923.15
2016-12-09T01:16:55.649Z,923.19
2016-12-09T01:17:12.404Z,923.2
2016-12-09T01:17:29.087Z,923.18
2016-12-09T01:17:45.796Z,923.19
2016-12-09T01:18:02.531Z,923.18
2016-12-09T01:18:19.235Z,923.18
2016-12-09T01:18:35.943Z,923.19
2016-12-09T01:18:52.658Z,923.19
2016-12-09T01:19:09.393Z,923.21
2016-12-09T01:19:26.114Z,923.2
2016-12-09T01:19:42.834Z,923.22
2016-12-09T01:19:59.532Z,923.24
2016-12-09T01:20:16.745Z,923.2
2016-12-09T01:20:33.455Z,923.21
2016-12-09T01:20:50.169Z,923.21
2016-12-09T01:21:06.877Z,923.24
2016-12-09T01:21:23.610Z,923.2
2016-12-09T01:21:40.314Z,923.19
2016-12-09T01:21:57.042Z,923.24
2016-12-09T01:22:13.749Z,923.23
2016-12-09T01:22:30.489Z,923.21
2016-12-09T01:22:47.199Z,923.18
2016-12-09T01:23:03.911Z,923.25
2016-12-09T01:23:20.606Z,923.23
2016-12-09T01:23:37.300Z,923.22
2016-12-09T01:23:54.020Z,923.22
2016-12-09T01:24:10.742Z,923.24
2016-12-09T01:24:27.461Z,923.27
2016-12-09T01:24:44.203Z,923.24
2016-12-09T01:25:00.909Z,923.25
2016-12-09T01:25:17.634Z,923.23
2016-12-09T01:25:34.360Z,923.23
2016-12-09T01:25:51.081Z,923.19
2016-12-09T01:26:08.298Z,923.22
2016-12-09T01:26:25.027Z,923.2
2016-12-09T01:26:41.778Z,923.22
2016-12-09T01:26:58.519Z,923.2
2016-12-09T01:27:15.237Z,923.21
2016-12-09T01:27:31.949Z,923.22
2016-12-09T01:27:48.700Z,923.14
2016-12-09T01:28:05.423Z,923.18
2016-12-09T01:28:22.144Z,923.13
2016-12-09T01:28:38.864Z,923.12
2016-12-09T01:28:55.562Z,923.09
2016-12-09T01:29:12.264Z,923.1
2016-12-09T01:29:28.995Z,923.1
2016-12-09T01:29:45.702Z,923.1
2016-12-09T01:30:02.437Z,923.08
2016-12-09T01:30:19.163Z,923.07
2016-12-09T01:30:35.903Z,923.07
2016-12-09T01:30:52.592Z,923.03
2016-12-09T01:31:09.327Z,923.05
2016-12-09T01:31:26.073Z,923.05
2016-12-09T01:31:43.307Z,923.05
2016-12-09T01:32:00.025Z,923.03
2016-12-09T01:32:16.752Z,923.02
2016-12-09T01:32:33.484Z,922.99
2016-12-09T01:32:50.209Z,922.99
2016-12-09T01:33:06.932Z,922.99
2016-12-09T01:33:23.652Z,922.97
2016-12-09T01:33:40.397Z,922.96
2016-12-09T01:33:57.629Z,922.96
2016-12-09T01:34:14.355Z,922.96
2016-12-09T01:34:31.063Z,922.98
2016-12-09T01:34:47.782Z,922.92
2016-12-09T01:35:04.489Z,922.97
2016-12-09T01:35:21.191Z,922.93
2016-12-09T01:35:37.911Z,922.94
2016-12-09T01:35:54.620Z,922.93
2016-12-09T01:36:11.332Z,922.92
2016-12-09T01:36:28.020Z,922.95
2016-12-09T01:36:44.741Z,922.93
2016-12-09T01:37:01.475Z,922.94
2016-12-09T01:37:18.205Z,922.96
2016-12-09T01:37:34.932Z,922.93
2016-12-09T01:37:51.654Z,922.93
2016-12-09T01:38:08.922Z,922.94
2016-12-09T01:38:25.658Z,922.96
2016-12-09T01:38:42.386Z,922.96
2016-12-09T01:38:59.100Z,922.95
2016-12-09T01:39:16.334Z,922.98
2016-12-09T01:39:33.056Z,922.96
2016-12-09T01:39:49.784Z,922.93
2016-12-09T01:40:06.527Z,922.95
2016-12-09T01:40:23.261Z,922.96
2016-12-09T01:40:40.012Z,922.92
2016-12-09T01:40:56.734Z,922.94
2016-12-09T01:41:13.453Z,922.93
2016-12-09T01:41:30.164Z,922.93
2016-12-09T01:41:46.900Z,922.93
2016-12-09T01:42:03.617Z,922.88
2016-12-09T01:42:20.358Z,922.86
2016-12-09T01:42:37.107Z,922.89
2016-12-09T01:42:53.822Z,922.86
2016-12-09T01:43:10.537Z,922.86
2016-12-09T01:43:27.262Z,922.89
2016-12-09T01:43:43.971Z,922.84
2016-12-09T01:44:00.704Z,922.82
2016-12-09T01:44:17.415Z,922.85
2016-12-09T01:44:34.130Z,922.84
2016-12-09T01:44:50.888Z,922.88
2016-12-09T01:45:07.635Z,922.83
2016-12-09T01:45:24.374Z,922.82
2016-12-09T01:45:41.086Z,922.84
2016-12-09T01:45:57.800Z,922.84
2016-12-09T01:46:14.515Z,922.84
2016-12-09T01:46:31.215Z,922.86
2016-12-09T01:46:47.935Z,922.84
2016-12-09T01:47:04.635Z,922.85
2016-12-09T01:47:21.357Z,922.87
2016-12-09T01:47:38.090Z,922.85
2016-12-09T01:47:54.787Z,922.83
2016-12-09T01:48:11.542Z,922.86
2016-12-09T01:48:28.268Z,922.86
2016-12-09T01:48:44.995Z,922.89
2016-12-09T01:49:01.713Z,922.91
2016-12-09T01:49:18.410Z,922.91
2016-12-09T01:49:35.110Z,922.9
2016-12-09T01:49:51.803Z,922.92
2016-12-09T01:50:08.548Z,922.96
2016-12-09T01:50:25.261Z,922.97
2016-12-09T01:50:41.984Z,922.96
2016-12-09T01:50:58.722Z,922.92
2016-12-09T01:51:15.432Z,922.97
2016-12-09T01:51:32.131Z,922.96
2016-12-09T01:51:48.852Z,922.99
2016-12-09T01:52:05.549Z,922.97
2016-12-09T01:52:22.315Z,923.02
2016-12-09T01:52:39.008Z,923.01
2016-12-09T01:52:55.700Z,923.03
2016-12-09T01:53:12.472Z,922.97
2016-12-09T01:53:29.196Z,923
2016-12-09T01:53:45.906Z,922.95
2016-12-09T01:54:02.616Z,922.96
2016-12-09T01:54:19.335Z,923.01
2016-12-09T01:54:36.077Z,922.98
2016-12-09T01:54:52.785Z,922.99
2016-12-09T01:55:09.522Z,923
2016-12-09T01:55:26.269Z,923
2016-12-09T01:55:43.008Z,923.01
2016-12-09T01:55:59.738Z,923
2016-12-09T01:56:16.447Z,922.99
2016-12-09T01:56:33.165Z,923.02
2016-12-09T01:56:49.871Z,923.06
2016-12-09T01:57:06.580Z,923.02
2016-12-09T01:57:23.281Z,923.01
2016-12-09T01:57:39.984Z,922.99
2016-12-09T01:57:56.708Z,923.02
2016-12-09T01:58:13.444Z,923
2016-12-09T01:58:30.184Z,923.02
2016-12-09T01:58:46.906Z,923.03
2016-12-09T01:59:03.649Z,923.02
2016-12-09T01:59:20.347Z,923.05
2016-12-09T01:59:37.062Z,923.07
2016-12-09T01:59:53.753Z,923.05
2016-12-09T02:00:10.965Z,923.08
2016-12-09T02:00:27.672Z,923.09
2016-12-09T02:00:44.447Z,923.06
2016-12-09T02:01:01.152Z,923.07
2016-12-09T02:01:17.877Z,923.1
2016-12-09T02:01:34.624Z,923.11
2016-12-09T02:01:51.347Z,923.06
2016-12-09T02:02:08.065Z,923.1
2016-12-09T02:02:24.786Z,923.06
2016-12-09T02:02:41.471Z,923.1
2016-12-09T02:02:58.179Z,923.09
2016-12-09T02:03:14.886Z,923.04
2016-12-09T02:03:32.130Z,923.05
2016-12-09T02:03:48.818Z,923.04
2016-12-09T02:04:05.566Z,923.05
2016-12-09T02:04:22.247Z,923.08
2016-12-09T02:04:38.997Z,923.04
2016-12-09T02:04:55.717Z,923.08
2016-12-09T02:05:12.436Z,923.05
2016-12-09T02:05:29.173Z,923.05
2016-12-09T02:05:45.891Z,923.06
2016-12-09T02:06:02.607Z,923.06
2016-12-09T02:06:19.332Z,923.03
2016-12-09T02:06:36.025Z,923.07
2016-12-09T02:06:52.753Z,923.07
2016-12-09T02:07:09.475Z,923.08
2016-12-09T02:07:26.200Z,923.06
2016-12-09T02:07:43.471Z,923.05
2016-12-09T02:08:00.174Z,923.07
2016-12-09T02:08:16.870Z,923.03
2016-12-09T02:08:33.599Z,923.05
2016-12-09T02:08:50.317Z,923.03
2016-12-09T02:09:07.021Z,923.01
2016-12-09T02:09:23.721Z,923.01
2016-12-09T02:09:40.431Z,923
2016-12-09T02:09:57.130Z,922.99
2016-12-09T02:10:13.834Z,922.98
2016-12-09T02:10:30.547Z,922.97
2016-12-09T02:10:47.268Z,922.97
2016-12-09T02:11:04.004Z,922.96
2016-12-09T02:11:20.717Z,922.96
2016-12-09T02:11:37.428Z,922.92
2016-12-09T02:11:54.151Z,922.93
2016-12-09T02:12:10.881Z,922.92
2016-12-09T02:12:27.619Z,922.93
2016-12-09T02:12:44.345Z,922.92
2016-12-09T02:13:01.078Z,922.92
2016-12-09T02:13:18.334Z,922.9
2016-12-09T02:13:35.061Z,922.9
2016-12-09T02:13:51.759Z,922.92
2016-12-09T02:14:08.449Z,922.9
2016-12-09T02:14:25.155Z,922.86
2016-12-09T02:14:41.936Z,922.88
2016-12-09T02:14:59.119Z,922.88
2016-12-09T02:15:16.294Z,922.85
2016-12-09T02:15:33.467Z,922.87
2016-12-09T02:15:50.659Z,922.84
2016-12-09T02:16:07.845Z,922.8
2016-12-09T02:16:25.573Z,922.83
2016-12-09T02:16:42.745Z,922.85
2016-12-09T02:16:59.907Z,922.82
2016-12-09T02:17:17.105Z,922.81
2016-12-09T02:17:34.287Z,922.81
2016-12-09T02:17:51.442Z,922.84
2016-12-09T02:18:09.232Z,922.81
2016-12-09T02:18:26.437Z,922.85
2016-12-09T02:18:43.613Z,922.83
2016-12-09T02:19:00.817Z,922.83
2016-12-09T02:19:17.980Z,922.85
2016-12-09T02:19:35.170Z,922.86
2016-12-09T02:19:52.361Z,922.84
2016-12-09T02:20:09.560Z,922.85
2016-12-09T02:20:26.728Z,922.83
2016-12-09T02:20:43.933Z,922.86
2016-12-09T02:21:01.103Z,922.85
2016-12-09T02:21:18.249Z,922.84
2016-12-09T02:21:35.451Z,922.87
2016-12-09T02:21:52.622Z,922.85
2016-12-09T02:22:09.819Z,922.85
2016-12-09T02:22:26.996Z,922.86
2016-12-09T02:22:44.153Z,922.88
2016-12-09T02:23:01.330Z,922.88
2016-12-09T02:23:19.093Z,922.87
2016-12-09T02:23:36.263Z,922.88
2016-12-09T02:23:53.451Z,922.82
2016-12-09T02:24:10.641Z,922.85
2016-12-09T02:24:27.843Z,922.82
2016-12-09T02:24:45.037Z,922.81
2016-12-09T02:25:02.217Z,922.83
2016-12-09T02:25:19.424Z,922.83
2016-12-09T02:25:36.655Z,922.84
2016-12-09T02:25:53.821Z,922.81
2016-12-09T02:26:11.024Z,922.82
2016-12-09T02:26:28.216Z,922.83
2016-12-09T02:26:45.948Z,922.85
2016-12-09T02:27:03.123Z,922.77
2016-12-09T02:27:20.299Z,922.84
2016-12-09T02:27:37.460Z,922.79
2016-12-09T02:27:54.637Z,922.83
2016-12-09T02:28:11.822Z,922.8
2016-12-09T02:28:29.006Z,922.81
2016-12-09T02:28:46.205Z,922.78
2016-12-09T02:29:03.409Z,922.77
2016-12-09T02:29:20.594Z,922.74
2016-12-09T02:29:37.806Z,922.8
2016-12-09T02:29:55.024Z,922.77
2016-12-09T02:30:12.193Z,922.78
2016-12-09T02:30:29.343Z,922.76
2016-12-09T02:30:46.551Z,922.79
2016-12-09T02:31:03.693Z,922.78
2016-12-09T02:31:20.849Z,922.76
2016-12-09T02:31:38.054Z,922.78
2016-12-09T02:31:55.233Z,922.78
2016-12-09T02:32:12.415Z,922.79
2016-12-09T02:32:29.601Z,922.73
2016-12-09T02:32:46.746Z,922.76
2016-12-09T02:33:03.938Z,922.78
2016-12-09T02:33:21.112Z,922.78
2016-12-09T02:33:38.291Z,922.79
2016-12-09T02:33:55.470Z,922.84
2016-12-09T02:34:12.665Z,922.78
2016-12-09T02:34:29.811Z,922.81
2016-12-09T02:34:46.957Z,922.8
2016-12-09T02:35:04.162Z,922.81
2016-12-09T02:35:21.318Z,922.8
2016-12-09T02:35:38.530Z,922.8
2016-12-09T02:35:55.732Z,922.77
2016-12-09T02:36:12.953Z,922.81
2016-12-09T02:36:30.139Z,922.79
2016-12-09T02:36:47.357Z,922.8
2016-12-09T02:37:04.560Z,922.78
2016-12-09T02:37:21.749Z,922.79
2016-12-09T02:37:38.948Z,922.75
2016-12-09T02:37:56.151Z,922.76
2016-12-09T02:38:13.343Z,922.75
2016-12-09T02:38:30.527Z,922.78
2016-12-09T02:38:47.737Z,922.78
2016-12-09T02:39:04.966Z,922.76
2016-12-09T02:39:22.204Z,922.77
2016-12-09T02:39:39.442Z,922.73
2016-12-09T02:39:56.649Z,922.72
2016-12-09T02:40:14.080Z,922.77
2016-12-09T02:40:31.280Z,922.77
2016-12-09T02:40:48.457Z,922.77
2016-12-09T02:41:05.660Z,922.78
2016-12-09T02:41:22.868Z,922.75
2016-12-09T02:41:40.063Z,922.77
2016-12-09T02:41:57.294Z,922.78
2016-12-09T02:42:14.515Z,922.76
2016-12-09T02:42:31.690Z,922.73
2016-12-09T02:42:48.875Z,922.75
2016-12-09T02:43:06.046Z,922.74
2016-12-09T02:43:23.210Z,922.78
2016-12-09T02:43:40.382Z,922.72
2016-12-09T02:43:57.552Z,922.76
2016-12-09T02:44:14.802Z,922.72
2016-12-09T02:44:31.980Z,922.74
2016-12-09T02:44:49.176Z,922.72
2016-12-09T02:45:06.349Z,922.75
2016-12-09T02:45:23.588Z,922.8
2016-12-09T02:45:40.773Z,922.76
2016-12-09T02:45:57.991Z,922.75
2016-12-09T02:46:15.152Z,922.75
2016-12-09T02:46:32.354Z,922.78
2016-12-09T02:46:49.525Z,922.78
2016-12-09T02:47:06.718Z,922.72
2016-12-09T02:47:23.868Z,922.75
2016-12-09T02:47:41.048Z,922.74
2016-12-09T02:47:58.265Z,922.75
2016-12-09T02:48:15.461Z,922.75
2016-12-09T02:48:32.649Z,922.76
2016-12-09T02:48:49.842Z,922.75
2016-12-09T02:49:07.040Z,922.76
2016-12-09T02:49:24.212Z,922.73
2016-12-09T02:49:41.412Z,922.7
2016-12-09T02:49:58.581Z,922.75
2016-12-09T02:50:15.786Z,922.71
2016-12-09T02:50:33.012Z,922.76
2016-12-09T02:50:50.227Z,922.76
2016-12-09T02:51:07.426Z,922.76
2016-12-09T02:51:24.648Z,922.77
2016-12-09T02:51:41.809Z,922.79
2016-12-09T02:51:59.004Z,922.83
2016-12-09T02:52:16.225Z,922.79
2016-12-09T02:52:33.418Z,922.81
2016-12-09T02:52:50.670Z,922.84
2016-12-09T02:53:07.840Z,922.81
2016-12-09T02:53:25.031Z,922.84
2016-12-09T02:53:42.205Z,922.84
2016-12-09T02:53:59.380Z,922.85
2016-12-09T02:54:16.543Z,922.85
2016-12-09T02:54:33.731Z,922.87
2016-12-09T02:54:50.903Z,922.9
2016-12-09T02:55:08.095Z,922.86
2016-12-09T02:55:25.262Z,922.9
2016-12-09T02:55:42.442Z,922.88
2016-12-09T02:55:59.628Z,922.89
2016-12-09T02:56:16.824Z,922.86
2016-12-09T02:56:33.986Z,922.85
2016-12-09T02:56:51.207Z,922.9
2016-12-09T02:57:08.383Z,922.87
2016-12-09T02:57:25.582Z,922.86
2016-12-09T02:57:42.751Z,922.83
2016-12-09T02:57:59.926Z,922.88
2016-12-09T02:58:17.101Z,922.88
2016-12-09T02:58:34.327Z,922.87
2016-12-09T02:58:51.506Z,922.87
2016-12-09T02:59:08.690Z,922.89
2016-12-09T02:59:25.895Z,922.89
2016-12-09T02:59:43.079Z,922.88
2016-12-09T03:00:00.243Z,922.88
2016-12-09T03:00:17.404Z,922.86
2016-12-09T03:00:34.608Z,922.87
2016-12-09T03:00:51.812Z,922.86
2016-12-09T03:01:09.387Z,922.88
2016-12-09T03:01:26.626Z,922.88
2016-12-09T03:01:43.807Z,922.82
2016-12-09T03:02:00.969Z,922.82
2016-12-09T03:02:18.164Z,922.82
2016-12-09T03:02:35.341Z,922.81
2016-12-09T03:02:52.518Z,922.81
2016-12-09T03:03:09.707Z,922.76
2016-12-09T03:03:27.091Z,922.81
2016-12-09T03:03:45.174Z,922.82
2016-12-09T03:04:02.977Z,922.83
2016-12-09T03:04:23.615Z,922.81
2016-12-09T03:04:42.219Z,922.77
